createdAt,value
2019-02-24T00:00:21.155Z,93.74
2019-02-24T00:01:21.111Z,93.84
2019-02-24T00:02:21.065Z,94.04
2019-02-24T00:03:21.021Z,94.23
2019-02-24T00:04:20.977Z,94.52
2019-02-24T00:05:20.931Z,95.00
2019-02-24T00:06:20.889Z,95.00
2019-02-24T00:07:20.844Z,94.52
2019-02-24T00:08:20.799Z,94.32
2019-02-24T00:09:20.753Z,94.62
2019-02-24T00:10:20.711Z,95.58
2019-02-24T00:11:20.663Z,95.97
2019-02-24T00:12:20.621Z,96.07
2019-02-24T00:13:20.576Z,96.17
2019-02-24T00:14:20.533Z,96.65
2019-02-24T00:15:20.488Z,96.26
2019-02-24T00:16:20.445Z,95.58
2019-02-24T00:17:20.399Z,95.25
2019-02-24T00:18:20.356Z,94.27
2019-02-24T00:19:20.309Z,94.23
2019-02-24T00:20:20.269Z,94.42
2019-02-24T00:21:20.220Z,95.20
2019-02-24T00:22:20.176Z,95.49
2019-02-24T00:23:20.135Z,95.39
2019-02-24T00:24:20.086Z,95.29
2019-02-24T00:25:20.043Z,95.29
2019-02-24T00:26:19.996Z,94.42
2019-02-24T00:27:19.952Z,94.42
2019-02-24T00:28:19.908Z,94.32
2019-02-24T00:29:19.870Z,94.42
2019-02-24T00:30:19.819Z,94.81
2019-02-24T00:31:19.775Z,94.42
2019-02-24T00:32:19.730Z,95.20
2019-02-24T00:33:19.687Z,95.00
2019-02-24T00:34:19.642Z,94.81
2019-02-24T00:35:19.597Z,94.62
2019-02-24T00:36:19.551Z,94.23
2019-02-24T00:37:19.506Z,94.47
2019-02-24T00:38:20.827Z,94.71
2019-02-24T00:39:19.419Z,94.13
2019-02-24T00:40:19.375Z,94.32
2019-02-24T00:41:19.351Z,93.74
2019-02-24T00:42:19.286Z,94.13
2019-02-24T00:43:19.251Z,93.65
2019-02-24T00:44:19.197Z,93.35
2019-02-24T00:45:19.151Z,93.07
2019-02-24T00:46:19.105Z,93.07
2019-02-24T00:47:19.063Z,94.04
2019-02-24T00:48:19.009Z,93.94
2019-02-24T00:49:18.966Z,93.84
2019-02-24T00:50:18.918Z,93.84
2019-02-24T00:51:18.878Z,93.45
2019-02-24T00:52:18.831Z,93.84
2019-02-24T00:53:18.790Z,94.13
2019-02-24T00:54:18.739Z,94.23
2019-02-24T00:55:18.698Z,94.04
2019-02-24T00:56:18.648Z,94.04
2019-02-24T00:57:18.607Z,94.32
2019-02-24T00:58:18.567Z,95.00
2019-02-24T00:59:18.516Z,95.25
2019-02-24T01:00:18.474Z,95.78
2019-02-24T01:01:18.429Z,95.64
2019-02-24T01:02:18.386Z,95.64
2019-02-24T01:03:18.338Z,95.25
2019-02-24T01:04:18.295Z,96.02
2019-02-24T01:05:18.253Z,96.70
2019-02-24T01:06:18.206Z,97.18
2019-02-24T01:07:18.162Z,96.99
2019-02-24T01:08:18.115Z,96.99
2019-02-24T01:09:18.075Z,97.23
2019-02-24T01:10:18.025Z,97.08
2019-02-24T01:11:17.981Z,96.50
2019-02-24T01:12:17.943Z,96.02
2019-02-24T01:13:17.892Z,95.34
2019-02-24T01:14:17.847Z,95.15
2019-02-24T01:15:17.806Z,95.34
2019-02-24T01:16:17.762Z,95.54
2019-02-24T01:17:17.715Z,95.58
2019-02-24T01:18:17.673Z,95.44
2019-02-24T01:19:17.649Z,95.78
2019-02-24T01:20:17.591Z,95.34
2019-02-24T01:21:17.536Z,95.73
2019-02-24T01:22:17.503Z,96.31
2019-02-24T01:23:17.456Z,96.22
2019-02-24T01:24:17.411Z,95.54
2019-02-24T01:25:17.365Z,95.83
2019-02-24T01:26:17.324Z,95.92
2019-02-24T01:27:17.280Z,95.64
2019-02-24T01:28:25.127Z,95.78
2019-02-24T01:29:17.190Z,95.83
2019-02-24T01:30:17.144Z,95.68
2019-02-24T01:31:17.092Z,95.92
2019-02-24T01:32:17.046Z,95.68
2019-02-24T01:33:17.027Z,95.29
2019-02-24T01:34:16.955Z,95.34
2019-02-24T01:35:16.911Z,95.58
2019-02-24T01:36:16.862Z,95.34
2019-02-24T01:37:16.825Z,95.54
2019-02-24T01:38:16.779Z,95.25
2019-02-24T01:39:16.730Z,95.44
2019-02-24T01:40:16.688Z,95.10
2019-02-24T01:41:16.646Z,95.39
2019-02-24T01:42:16.598Z,95.78
2019-02-24T01:43:16.551Z,95.87
2019-02-24T01:44:16.512Z,95.68
2019-02-24T01:45:16.462Z,94.90
2019-02-24T01:46:16.423Z,95.49
2019-02-24T01:47:16.375Z,95.25
2019-02-24T01:48:16.328Z,94.28
2019-02-24T01:49:16.285Z,94.23
2019-02-24T01:50:16.242Z,94.37
2019-02-24T01:51:16.196Z,95.15
2019-02-24T01:52:16.164Z,95.15
2019-02-24T01:53:16.106Z,95.78
2019-02-24T01:54:16.059Z,96.12
2019-02-24T01:55:16.018Z,96.07
2019-02-24T01:56:15.972Z,96.22
2019-02-24T01:57:15.926Z,95.73
2019-02-24T01:58:15.886Z,95.64
2019-02-24T01:59:15.841Z,95.83
2019-02-24T02:00:15.795Z,95.44
2019-02-24T02:01:15.752Z,95.25
2019-02-24T02:02:15.706Z,95.15
2019-02-24T02:03:15.659Z,95.15
2019-02-24T02:04:15.616Z,94.47
2019-02-24T02:05:15.571Z,94.28
2019-02-24T02:06:15.523Z,94.28
2019-02-24T02:07:15.487Z,94.37
2019-02-24T02:08:15.436Z,94.96
2019-02-24T02:09:15.389Z,95.20
2019-02-24T02:10:15.348Z,94.37
2019-02-24T02:11:15.302Z,95.01
2019-02-24T02:12:15.260Z,95.49
2019-02-24T02:13:15.212Z,95.97
2019-02-24T02:14:15.166Z,96.07
2019-02-24T02:15:15.125Z,96.65
2019-02-24T02:16:15.076Z,96.26
2019-02-24T02:17:15.033Z,96.07
2019-02-24T02:18:14.992Z,95.78
2019-02-24T02:19:14.944Z,95.49
2019-02-24T02:20:14.902Z,95.20
2019-02-24T02:21:14.860Z,95.78
2019-02-24T02:22:14.806Z,95.97
2019-02-24T02:23:14.764Z,96.26
2019-02-24T02:24:14.717Z,96.55
2019-02-24T02:25:14.675Z,96.07
2019-02-24T02:26:14.632Z,96.17
2019-02-24T02:27:14.589Z,95.49
2019-02-24T02:28:14.540Z,95.73
2019-02-24T02:29:14.495Z,95.59
2019-02-24T02:30:14.463Z,95.64
2019-02-24T02:31:14.415Z,95.54
2019-02-24T02:32:14.358Z,95.05
2019-02-24T02:33:14.315Z,94.96
2019-02-24T02:34:14.275Z,94.86
2019-02-24T02:35:14.226Z,94.67
2019-02-24T02:36:14.182Z,93.99
2019-02-24T02:37:14.137Z,94.18
2019-02-24T02:38:14.091Z,93.51
2019-02-24T02:39:14.053Z,94.28
2019-02-24T02:40:14.006Z,94.09
2019-02-24T02:41:13.958Z,94.47
2019-02-24T02:42:13.915Z,94.76
2019-02-24T02:43:13.869Z,95.15
2019-02-24T02:44:13.824Z,94.76
2019-02-24T02:45:13.775Z,95.05
2019-02-24T02:46:13.738Z,95.64
2019-02-24T02:47:13.693Z,95.73
2019-02-24T02:48:13.642Z,95.54
2019-02-24T02:49:13.600Z,95.34
2019-02-24T02:50:13.555Z,94.96
2019-02-24T02:51:13.512Z,95.05
2019-02-24T02:52:13.467Z,94.67
2019-02-24T02:53:13.421Z,94.47
2019-02-24T02:54:13.374Z,95.01
2019-02-24T02:55:13.331Z,95.10
2019-02-24T02:56:13.284Z,95.20
2019-02-24T02:57:13.240Z,95.01
2019-02-24T02:58:13.197Z,94.71
2019-02-24T02:59:13.149Z,94.91
2019-02-24T03:00:13.106Z,93.94
2019-02-24T03:01:13.065Z,93.55
2019-02-24T03:02:13.022Z,93.26
2019-02-24T03:03:12.970Z,92.78
2019-02-24T03:04:12.931Z,92.20
2019-02-24T03:05:12.884Z,92.49
2019-02-24T03:06:12.836Z,92.20
2019-02-24T03:07:12.795Z,91.82
2019-02-24T03:08:12.748Z,92.30
2019-02-24T03:09:12.709Z,92.68
2019-02-24T03:10:12.658Z,92.58
2019-02-24T03:11:12.611Z,93.26
2019-02-24T03:12:12.569Z,93.07
2019-02-24T03:13:12.528Z,92.58
2019-02-24T03:14:12.478Z,92.30
2019-02-24T03:15:12.433Z,92.34
2019-02-24T03:16:12.388Z,92.05
2019-02-24T03:17:12.348Z,92.15
2019-02-24T03:18:12.299Z,92.40
2019-02-24T03:19:12.254Z,92.30
2019-02-24T03:20:12.212Z,91.82
2019-02-24T03:21:12.168Z,92.20
2019-02-24T03:22:12.123Z,91.82
2019-02-24T03:23:12.078Z,91.47
2019-02-24T03:24:12.031Z,91.82
2019-02-24T03:25:12.000Z,91.08
2019-02-24T03:26:11.941Z,90.84
2019-02-24T03:27:11.909Z,90.84
2019-02-24T03:28:11.851Z,90.70
2019-02-24T03:29:11.808Z,90.12
2019-02-24T03:30:11.779Z,90.02
2019-02-24T03:31:11.718Z,90.12
2019-02-24T03:32:11.674Z,90.21
2019-02-24T03:33:11.641Z,89.92
2019-02-24T03:34:11.588Z,90.12
2019-02-24T03:35:11.540Z,89.25
2019-02-24T03:36:11.490Z,89.92
2019-02-24T03:37:11.451Z,90.60
2019-02-24T03:38:11.406Z,90.80
2019-02-24T03:39:11.359Z,90.70
2019-02-24T03:40:11.317Z,91.08
2019-02-24T03:41:11.268Z,91.28
2019-02-24T03:42:11.227Z,91.62
2019-02-24T03:43:11.182Z,92.00
2019-02-24T03:44:11.133Z,92.15
2019-02-24T03:45:11.093Z,91.91
2019-02-24T03:46:11.048Z,91.82
2019-02-24T03:47:11.005Z,91.72
2019-02-24T03:48:10.954Z,91.52
2019-02-24T03:49:10.917Z,90.65
2019-02-24T03:50:10.867Z,90.26
2019-02-24T03:51:10.823Z,90.84
2019-02-24T03:52:10.778Z,90.65
2019-02-24T03:53:10.730Z,90.46
2019-02-24T03:54:10.685Z,90.84
2019-02-24T03:55:10.640Z,90.75
2019-02-24T03:56:10.601Z,90.84
2019-02-24T03:57:10.553Z,91.04
2019-02-24T03:58:10.510Z,91.33
2019-02-24T03:59:15.093Z,91.24
2019-02-24T04:00:10.416Z,91.42
2019-02-24T04:01:10.373Z,92.10
2019-02-24T04:02:10.330Z,91.82
2019-02-24T04:03:10.286Z,92.10
2019-02-24T04:04:10.243Z,92.10
2019-02-24T04:05:10.194Z,92.10
2019-02-24T04:06:10.149Z,92.49
2019-02-24T04:07:10.103Z,92.00
2019-02-24T04:08:10.059Z,92.30
2019-02-24T04:09:10.016Z,92.00
2019-02-24T04:10:09.968Z,92.00
2019-02-24T04:11:09.925Z,92.40
2019-02-24T04:12:09.884Z,91.62
2019-02-24T04:13:09.837Z,91.91
2019-02-24T04:14:09.789Z,92.30
2019-02-24T04:15:10.247Z,92.58
2019-02-24T04:16:09.703Z,92.68
2019-02-24T04:17:09.656Z,92.68
2019-02-24T04:18:09.608Z,92.58
2019-02-24T04:19:09.565Z,92.49
2019-02-24T04:20:09.523Z,92.68
2019-02-24T04:21:09.472Z,92.88
2019-02-24T04:22:09.430Z,92.68
2019-02-24T04:23:09.384Z,92.68
2019-02-24T04:24:09.342Z,92.88
2019-02-24T04:25:09.300Z,92.58
2019-02-24T04:26:09.250Z,92.58
2019-02-24T04:27:09.216Z,92.88
2019-02-24T04:28:09.165Z,92.88
2019-02-24T04:29:09.116Z,92.78
2019-02-24T04:30:09.071Z,92.58
2019-02-24T04:31:09.030Z,92.83
2019-02-24T04:32:08.980Z,92.93
2019-02-24T04:33:08.937Z,92.88
2019-02-24T04:34:08.892Z,92.68
2019-02-24T04:35:08.850Z,93.07
2019-02-24T04:36:08.798Z,93.26
2019-02-24T04:37:08.759Z,92.97
2019-02-24T04:38:08.713Z,93.36
2019-02-24T04:39:08.671Z,93.75
2019-02-24T04:40:08.626Z,93.26
2019-02-24T04:41:08.577Z,93.55
2019-02-24T04:42:08.532Z,93.46
2019-02-24T04:43:08.489Z,94.04
2019-02-24T04:44:08.447Z,94.62
2019-02-24T04:45:08.398Z,94.52
2019-02-24T04:46:08.356Z,94.52
2019-02-24T04:47:08.308Z,95.10
2019-02-24T04:48:08.270Z,94.67
2019-02-24T04:49:08.216Z,95.34
2019-02-24T04:50:08.176Z,94.86
2019-02-24T04:51:08.132Z,95.44
2019-02-24T04:52:08.084Z,95.83
2019-02-24T04:53:08.047Z,95.73
2019-02-24T04:54:07.998Z,96.12
2019-02-24T04:55:07.949Z,95.34
2019-02-24T04:56:07.902Z,95.93
2019-02-24T04:57:07.865Z,96.12
2019-02-24T04:58:07.811Z,95.44
2019-02-24T04:59:08.733Z,95.06
2019-02-24T05:00:07.728Z,95.10
2019-02-24T05:01:07.677Z,95.44
2019-02-24T05:02:07.633Z,95.44
2019-02-24T05:03:07.590Z,96.65
2019-02-24T05:04:07.542Z,96.31
2019-02-24T05:05:07.498Z,96.31
2019-02-24T05:06:07.452Z,96.60
2019-02-24T05:07:07.408Z,96.51
2019-02-24T05:08:07.364Z,96.31
2019-02-24T05:09:07.319Z,96.02
2019-02-24T05:10:07.278Z,95.93
2019-02-24T05:11:07.228Z,96.22
2019-02-24T05:12:07.188Z,95.73
2019-02-24T05:13:07.138Z,95.64
2019-02-24T05:14:07.097Z,95.54
2019-02-24T05:15:07.049Z,95.34
2019-02-24T05:16:07.008Z,95.54
2019-02-24T05:17:06.955Z,95.93
2019-02-24T05:18:06.913Z,96.70
2019-02-24T05:19:06.868Z,96.89
2019-02-24T05:20:06.833Z,96.80
2019-02-24T05:21:06.777Z,96.80
2019-02-24T05:22:06.737Z,96.60
2019-02-24T05:23:06.692Z,96.80
2019-02-24T05:24:06.649Z,96.70
2019-02-24T05:25:06.599Z,96.75
2019-02-24T05:26:06.557Z,96.51
2019-02-24T05:27:06.507Z,96.60
2019-02-24T05:28:06.471Z,96.51
2019-02-24T05:29:06.420Z,96.31
2019-02-24T05:30:06.371Z,96.12
2019-02-24T05:31:06.332Z,95.93
2019-02-24T05:32:06.282Z,96.60
2019-02-24T05:33:06.237Z,96.41
2019-02-24T05:34:06.200Z,96.31
2019-02-24T05:35:06.158Z,96.70
2019-02-24T05:36:06.107Z,96.80
2019-02-24T05:37:06.060Z,96.89
2019-02-24T05:38:06.014Z,96.70
2019-02-24T05:39:05.966Z,97.09
2019-02-24T05:40:05.927Z,96.70
2019-02-24T05:41:05.875Z,96.70
2019-02-24T05:42:05.836Z,96.70
2019-02-24T05:43:05.788Z,96.60
2019-02-24T05:44:05.744Z,96.60
2019-02-24T05:45:05.746Z,96.80
2019-02-24T05:46:05.658Z,96.51
2019-02-24T05:47:05.611Z,96.70
2019-02-24T05:48:05.562Z,96.46
2019-02-24T05:49:05.516Z,96.46
2019-02-24T05:50:05.470Z,96.75
2019-02-24T05:51:05.429Z,96.41
2019-02-24T05:52:05.383Z,97.09
2019-02-24T05:53:05.340Z,96.70
2019-02-24T05:54:05.290Z,96.51
2019-02-24T05:55:05.252Z,96.41
2019-02-24T05:56:05.203Z,96.46
2019-02-24T05:57:05.167Z,96.41
2019-02-24T05:58:05.117Z,96.51
2019-02-24T05:59:05.066Z,96.75
2019-02-24T06:00:05.026Z,96.89
2019-02-24T06:01:04.975Z,97.18
2019-02-24T06:02:04.934Z,97.09
2019-02-24T06:03:04.888Z,96.80
2019-02-24T06:04:04.849Z,96.89
2019-02-24T06:05:04.800Z,96.80
2019-02-24T06:06:04.757Z,96.80
2019-02-24T06:07:04.706Z,97.18
2019-02-24T06:08:04.661Z,97.28
2019-02-24T06:09:04.620Z,97.47
2019-02-24T06:10:04.574Z,97.47
2019-02-24T06:11:04.528Z,97.77
2019-02-24T06:12:04.486Z,97.96
2019-02-24T06:13:04.435Z,98.05
2019-02-24T06:14:04.391Z,98.25
2019-02-24T06:15:04.349Z,98.35
2019-02-24T06:16:04.299Z,97.86
2019-02-24T06:17:04.262Z,97.96
2019-02-24T06:18:04.215Z,97.86
2019-02-24T06:19:04.161Z,97.57
2019-02-24T06:20:04.120Z,97.09
2019-02-24T06:21:04.074Z,97.18
2019-02-24T06:22:04.035Z,96.99
2019-02-24T06:23:03.989Z,96.99
2019-02-24T06:24:03.939Z,97.47
2019-02-24T06:25:03.898Z,97.42
2019-02-24T06:26:03.854Z,97.86
2019-02-24T06:27:03.803Z,98.35
2019-02-24T06:28:03.769Z,98.25
2019-02-24T06:29:03.715Z,97.96
2019-02-24T06:30:05.288Z,98.88
2019-02-24T06:31:03.630Z,98.68
2019-02-24T06:32:03.594Z,98.68
2019-02-24T06:33:03.537Z,98.30
2019-02-24T06:34:03.489Z,98.73
2019-02-24T06:35:03.447Z,99.07
2019-02-24T06:36:03.396Z,99.55
2019-02-24T06:37:03.355Z,99.65
2019-02-24T06:38:03.306Z,99.69
2019-02-24T06:39:03.265Z,99.74
2019-02-24T06:40:03.221Z,99.65
2019-02-24T06:41:03.171Z,99.65
2019-02-24T06:42:03.128Z,99.46
2019-02-24T06:43:03.091Z,98.88
2019-02-24T06:44:03.037Z,99.26
2019-02-24T06:45:02.992Z,98.78
2019-02-24T06:46:02.946Z,98.68
2019-02-24T06:47:02.914Z,98.49
2019-02-24T06:48:02.857Z,98.49
2019-02-24T06:49:02.810Z,98.88
2019-02-24T06:50:02.765Z,98.49
2019-02-24T06:51:02.723Z,98.30
2019-02-24T06:52:02.678Z,98.20
2019-02-24T06:53:02.629Z,98.39
2019-02-24T06:54:02.584Z,98.30
2019-02-24T06:55:02.545Z,98.30
2019-02-24T06:56:02.493Z,98.88
2019-02-24T06:57:02.454Z,98.35
2019-02-24T06:58:02.405Z,98.20
2019-02-24T06:59:02.365Z,98.68
2019-02-24T07:00:02.335Z,98.88
2019-02-24T07:01:02.269Z,98.78
2019-02-24T07:02:02.223Z,99.46
2019-02-24T07:03:02.179Z,99.99
2019-02-24T07:04:02.134Z,99.65
2019-02-24T07:05:02.099Z,99.65
2019-02-24T07:06:02.046Z,99.99
2019-02-24T07:07:02.002Z,99.94
2019-02-24T07:08:01.953Z,99.65
2019-02-24T07:09:01.916Z,99.84
2019-02-24T07:10:01.861Z,99.99
2019-02-24T07:11:01.824Z,99.99
2019-02-24T07:12:01.774Z,99.74
2019-02-24T07:13:01.725Z,99.65
2019-02-24T07:14:01.684Z,99.26
2019-02-24T07:15:01.640Z,98.97
2019-02-24T07:16:01.596Z,99.26
2019-02-24T07:17:01.546Z,99.26
2019-02-24T07:18:01.515Z,98.88
2019-02-24T07:19:01.458Z,99.65
2019-02-24T07:20:01.412Z,99.74
2019-02-24T07:21:01.367Z,99.99
2019-02-24T07:22:01.322Z,99.99
2019-02-24T07:23:01.275Z,99.99
2019-02-24T07:24:01.232Z,99.99
2019-02-24T07:25:01.184Z,99.99
2019-02-24T07:26:01.138Z,99.99
2019-02-24T07:27:01.097Z,99.99
2019-02-24T07:28:01.047Z,99.99
2019-02-24T07:29:01.004Z,99.99
2019-02-24T07:30:00.959Z,99.99
2019-02-24T07:31:00.918Z,99.99
2019-02-24T07:32:00.866Z,99.99
2019-02-24T07:33:00.825Z,99.99
2019-02-24T07:34:00.777Z,99.99
2019-02-24T07:35:00.800Z,99.99
2019-02-24T07:36:00.690Z,99.99
2019-02-24T07:37:00.643Z,99.99
2019-02-24T07:38:00.594Z,99.99
2019-02-24T07:39:00.551Z,99.99
2019-02-24T07:40:00.508Z,99.99
2019-02-24T07:41:00.460Z,99.99
2019-02-24T07:42:00.415Z,99.99
2019-02-24T07:43:00.368Z,99.99
2019-02-24T07:44:00.367Z,99.99
2019-02-24T07:45:00.297Z,99.99
2019-02-24T07:46:00.231Z,99.99
2019-02-24T07:47:00.193Z,99.99
2019-02-24T07:48:00.143Z,99.99
2019-02-24T07:49:00.099Z,99.99
2019-02-24T07:50:00.051Z,99.99
2019-02-24T07:51:00.005Z,99.99
2019-02-24T07:51:59.961Z,99.99
2019-02-24T07:52:59.916Z,99.99
2019-02-24T07:53:59.872Z,99.99
2019-02-24T07:54:59.824Z,99.99
2019-02-24T07:55:59.783Z,99.99
2019-02-24T07:56:59.737Z,99.99
2019-02-24T07:57:59.688Z,99.99
2019-02-24T07:58:59.643Z,99.99
2019-02-24T07:59:59.600Z,99.99
2019-02-24T08:00:59.551Z,99.99
2019-02-24T08:01:59.514Z,99.99
2019-02-24T08:02:59.461Z,99.99
2019-02-24T08:03:59.416Z,99.99
2019-02-24T08:04:59.372Z,99.99
2019-02-24T08:05:59.328Z,99.99
2019-02-24T08:06:59.287Z,99.99
2019-02-24T08:07:59.233Z,99.99
2019-02-24T08:08:59.190Z,99.99
2019-02-24T08:09:59.146Z,99.99
2019-02-24T08:10:59.099Z,99.99
2019-02-24T08:11:59.069Z,99.99
2019-02-24T08:12:59.013Z,99.99
2019-02-24T08:13:58.966Z,99.99
2019-02-24T08:14:58.918Z,99.99
2019-02-24T08:15:58.873Z,99.99
2019-02-24T08:16:58.830Z,99.99
2019-02-24T08:17:58.785Z,99.99
2019-02-24T08:18:58.744Z,99.99
2019-02-24T08:19:58.691Z,99.99
2019-02-24T08:20:58.686Z,99.99
2019-02-24T08:21:58.606Z,99.99
2019-02-24T08:22:58.553Z,99.99
2019-02-24T08:23:58.511Z,99.99
2019-02-24T08:24:58.468Z,99.99
2019-02-24T08:25:58.420Z,99.99
2019-02-24T08:26:58.377Z,99.99
2019-02-24T08:27:58.331Z,99.99
2019-02-24T08:28:58.307Z,99.99
2019-02-24T08:29:58.236Z,99.99
2019-02-24T08:30:58.193Z,99.99
2019-02-24T08:31:58.149Z,99.99
2019-02-24T08:32:58.099Z,99.99
2019-02-24T08:33:58.057Z,99.99
2019-02-24T08:34:58.008Z,99.99
2019-02-24T08:35:57.963Z,99.99
2019-02-24T08:36:57.919Z,99.99
2019-02-24T08:37:57.877Z,99.99
2019-02-24T08:38:57.832Z,99.99
2019-02-24T08:39:57.787Z,99.99
2019-02-24T08:40:57.736Z,99.99
2019-02-24T08:41:57.693Z,99.99
2019-02-24T08:42:57.654Z,99.99
2019-02-24T08:43:57.602Z,99.99
2019-02-24T08:44:57.557Z,99.99
2019-02-24T08:45:57.511Z,99.99
2019-02-24T08:46:57.502Z,99.99
2019-02-24T08:47:57.419Z,99.99
2019-02-24T08:48:57.378Z,99.99
2019-02-24T08:49:57.332Z,99.99
2019-02-24T08:50:57.286Z,99.99
2019-02-24T08:51:57.242Z,99.99
2019-02-24T08:52:57.192Z,99.99
2019-02-24T08:53:57.146Z,99.99
2019-02-24T08:54:57.101Z,99.99
2019-02-24T08:55:57.056Z,99.99
2019-02-24T08:56:57.015Z,99.99
2019-02-24T08:57:56.972Z,99.99
2019-02-24T08:58:56.921Z,99.99
2019-02-24T08:59:56.878Z,99.99
2019-02-24T09:00:56.837Z,99.99
2019-02-24T09:01:56.782Z,99.99
2019-02-24T09:02:56.743Z,99.99
2019-02-24T09:03:56.699Z,99.99
2019-02-24T09:04:56.694Z,99.99
2019-02-24T09:05:56.604Z,99.99
2019-02-24T09:06:56.559Z,99.99
2019-02-24T09:07:56.515Z,99.99
2019-02-24T09:08:56.465Z,99.99
2019-02-24T09:09:56.417Z,99.99
2019-02-24T09:10:56.375Z,99.99
2019-02-24T09:11:56.328Z,99.99
2019-02-24T09:12:56.285Z,99.99
2019-02-24T09:13:56.243Z,99.99
2019-02-24T09:14:56.193Z,99.99
2019-02-24T09:15:56.147Z,99.99
2019-02-24T09:16:56.105Z,99.99
2019-02-24T09:17:56.065Z,99.99
2019-02-24T09:18:56.010Z,99.99
2019-02-24T09:19:55.969Z,99.99
2019-02-24T09:20:55.925Z,99.99
2019-02-24T09:21:55.884Z,99.99
2019-02-24T09:22:55.833Z,99.99
2019-02-24T09:23:55.788Z,99.99
2019-02-24T09:24:55.743Z,99.99
2019-02-24T09:25:55.693Z,99.79
2019-02-24T09:26:55.648Z,99.99
2019-02-24T09:27:55.603Z,99.36
2019-02-24T09:28:55.573Z,99.07
2019-02-24T09:29:55.516Z,99.07
2019-02-24T09:31:00.921Z,98.30
2019-02-24T09:31:55.426Z,99.02
2019-02-24T09:32:55.377Z,97.86
2019-02-24T09:33:55.330Z,97.47
2019-02-24T09:34:55.287Z,97.28
2019-02-24T09:35:55.247Z,98.25
2019-02-24T09:36:55.200Z,98.00
2019-02-24T09:37:55.152Z,97.91
2019-02-24T09:38:55.104Z,97.23
2019-02-24T09:39:55.065Z,96.80
2019-02-24T09:40:55.015Z,94.81
2019-02-24T09:41:54.975Z,93.16
2019-02-24T09:42:54.931Z,92.43
2019-02-24T09:43:54.890Z,92.05
2019-02-24T09:44:54.845Z,90.93
2019-02-24T09:45:54.800Z,90.11
2019-02-24T09:46:54.759Z,89.67
2019-02-24T09:47:54.714Z,89.37
2019-02-24T09:48:54.678Z,88.45
2019-02-24T09:49:54.624Z,86.11
2019-02-24T09:50:54.583Z,84.27
2019-02-24T09:51:54.541Z,82.60
2019-02-24T09:52:54.497Z,80.79
2019-02-24T09:53:54.453Z,79.18
2019-02-24T09:54:54.413Z,77.27
2019-02-24T09:55:54.375Z,76.24
2019-02-24T09:56:54.334Z,75.46
2019-02-24T09:57:54.291Z,73.84
2019-02-24T09:58:54.251Z,72.41
2019-02-24T09:59:54.218Z,70.40
2019-02-24T10:00:54.177Z,69.20
2019-02-24T10:01:54.137Z,68.13
2019-02-24T10:02:54.103Z,67.19
2019-02-24T10:03:54.057Z,66.99
2019-02-24T10:04:54.021Z,67.25
2019-02-24T10:05:53.988Z,67.22
2019-02-24T10:06:53.960Z,69.23
2019-02-24T10:07:53.910Z,70.56
2019-02-24T10:08:53.872Z,70.86
2019-02-24T10:09:53.838Z,71.80
2019-02-24T10:10:53.801Z,72.73
2019-02-24T10:11:53.756Z,73.71
2019-02-24T10:12:53.722Z,73.71
2019-02-24T10:13:53.681Z,72.73
2019-02-24T10:14:53.640Z,73.22
2019-02-24T10:15:53.603Z,72.34
2019-02-24T10:16:53.564Z,72.44
2019-02-24T10:17:53.526Z,72.80
2019-02-24T10:18:53.489Z,73.77
2019-02-24T10:19:53.447Z,74.26
2019-02-24T10:20:53.408Z,74.61
2019-02-24T10:21:53.370Z,75.05
2019-02-24T10:22:53.327Z,76.32
2019-02-24T10:23:53.292Z,76.61
2019-02-24T10:24:53.255Z,76.22
2019-02-24T10:25:53.213Z,76.84
2019-02-24T10:26:53.171Z,75.46
2019-02-24T10:27:53.128Z,74.04
2019-02-24T10:28:53.092Z,70.86
2019-02-24T10:29:53.056Z,69.65
2019-02-24T10:30:53.014Z,68.71
2019-02-24T10:31:52.980Z,67.44
2019-02-24T10:32:52.938Z,66.02
2019-02-24T10:33:52.904Z,65.53
2019-02-24T10:34:52.869Z,66.02
2019-02-24T10:35:52.832Z,65.53
2019-02-24T10:36:52.797Z,65.17
2019-02-24T10:37:52.767Z,64.00
2019-02-24T10:38:52.720Z,63.34
2019-02-24T10:39:52.689Z,63.05
2019-02-24T10:40:52.650Z,64.19
2019-02-24T10:41:53.749Z,64.09
2019-02-24T10:42:52.583Z,63.41
2019-02-24T10:43:52.553Z,63.38
2019-02-24T10:44:52.515Z,64.26
2019-02-24T10:45:52.479Z,63.31
2019-02-24T10:46:52.452Z,63.31
2019-02-24T10:47:52.413Z,63.41
2019-02-24T10:48:52.376Z,62.85
2019-02-24T10:49:52.343Z,62.66
2019-02-24T10:50:52.309Z,62.46
2019-02-24T10:51:52.330Z,61.48
2019-02-24T10:52:52.245Z,61.97
2019-02-24T10:53:52.208Z,61.90
2019-02-24T10:54:52.178Z,61.22
2019-02-24T10:55:52.144Z,61.25
2019-02-24T10:56:52.114Z,60.17
2019-02-24T10:57:52.092Z,59.32
2019-02-24T10:58:52.053Z,59.71
2019-02-24T10:59:52.016Z,59.35
2019-02-24T11:00:51.986Z,58.64
2019-02-24T11:01:51.954Z,58.47
2019-02-24T11:02:51.922Z,57.88
2019-02-24T11:03:51.889Z,58.73
2019-02-24T11:04:51.854Z,59.00
2019-02-24T11:05:51.823Z,59.69
2019-02-24T11:06:51.790Z,59.78
2019-02-24T11:07:51.755Z,59.66
2019-02-24T11:08:51.726Z,60.34
2019-02-24T11:09:51.688Z,61.38
2019-02-24T11:10:51.659Z,61.41
2019-02-24T11:11:51.624Z,61.68
2019-02-24T11:12:51.583Z,61.68
2019-02-24T11:13:51.554Z,62.66
2019-02-24T11:14:51.511Z,61.77
2019-02-24T11:15:51.478Z,61.09
2019-02-24T11:16:51.442Z,61.38
2019-02-24T11:17:51.408Z,61.87
2019-02-24T11:18:51.366Z,62.07
2019-02-24T11:19:51.333Z,61.97
2019-02-24T11:20:51.297Z,62.13
2019-02-24T11:21:51.260Z,62.63
2019-02-24T11:22:51.223Z,62.73
2019-02-24T11:23:51.182Z,63.38
2019-02-24T11:24:51.147Z,64.09
2019-02-24T11:25:51.109Z,63.48
2019-02-24T11:26:51.069Z,64.36
2019-02-24T11:27:51.028Z,64.26
2019-02-24T11:28:50.990Z,64.26
2019-02-24T11:29:50.954Z,64.65
2019-02-24T11:30:50.915Z,63.90
2019-02-24T11:31:50.874Z,64.58
2019-02-24T11:32:50.833Z,64.87
2019-02-24T11:33:50.795Z,64.65
2019-02-24T11:34:50.758Z,64.65
2019-02-24T11:35:50.718Z,64.55
2019-02-24T11:36:50.679Z,64.16
2019-02-24T11:37:50.640Z,65.14
2019-02-24T11:38:50.601Z,65.53
2019-02-24T11:39:50.561Z,64.75
2019-02-24T11:40:50.520Z,64.06
2019-02-24T11:41:50.483Z,64.16
2019-02-24T11:42:50.440Z,63.41
2019-02-24T11:43:50.400Z,64.00
2019-02-24T11:44:50.361Z,64.48
2019-02-24T11:45:50.320Z,63.90
2019-02-24T11:46:50.285Z,64.00
2019-02-24T11:47:50.246Z,62.92
2019-02-24T11:48:50.202Z,64.16
2019-02-24T11:49:50.164Z,63.28
2019-02-24T11:50:50.133Z,63.73
2019-02-24T11:51:50.081Z,64.71
2019-02-24T11:52:50.041Z,65.98
2019-02-24T11:53:49.998Z,66.08
2019-02-24T11:54:49.960Z,64.61
2019-02-24T11:55:49.918Z,64.12
2019-02-24T11:56:49.883Z,63.83
2019-02-24T11:57:49.842Z,64.65
2019-02-24T11:58:49.797Z,64.65
2019-02-24T11:59:49.758Z,64.55
2019-02-24T12:00:49.719Z,64.55
2019-02-24T12:01:49.678Z,64.75
2019-02-24T12:02:49.642Z,64.26
2019-02-24T12:03:49.597Z,63.87
2019-02-24T12:04:49.555Z,64.16
2019-02-24T12:05:49.520Z,65.04
2019-02-24T12:06:49.479Z,66.27
2019-02-24T12:07:49.436Z,65.49
2019-02-24T12:08:49.394Z,64.90
2019-02-24T12:09:49.357Z,65.78
2019-02-24T12:10:49.314Z,64.65
2019-02-24T12:11:49.275Z,64.55
2019-02-24T12:12:49.233Z,63.96
2019-02-24T12:13:49.192Z,63.28
2019-02-24T12:14:49.154Z,63.31
2019-02-24T12:15:49.114Z,63.02
2019-02-24T12:16:49.081Z,63.48
2019-02-24T12:17:49.035Z,63.28
2019-02-24T12:18:48.992Z,65.56
2019-02-24T12:19:48.953Z,63.90
2019-02-24T12:20:48.912Z,64.78
2019-02-24T12:21:48.866Z,64.00
2019-02-24T12:22:48.830Z,63.70
2019-02-24T12:23:48.789Z,63.41
2019-02-24T12:24:48.751Z,64.29
2019-02-24T12:25:48.707Z,64.19
2019-02-24T12:26:48.669Z,63.12
2019-02-24T12:27:48.628Z,61.84
2019-02-24T12:28:48.589Z,63.21
2019-02-24T12:29:48.546Z,63.41
2019-02-24T12:30:48.503Z,64.19
2019-02-24T12:31:56.386Z,63.83
2019-02-24T12:32:48.424Z,64.12
2019-02-24T12:33:48.384Z,63.44
2019-02-24T12:34:48.346Z,63.90
2019-02-24T12:35:48.300Z,64.09
2019-02-24T12:36:48.264Z,63.60
2019-02-24T12:37:48.222Z,64.09
2019-02-24T12:38:48.183Z,63.80
2019-02-24T12:39:48.142Z,64.39
2019-02-24T12:40:48.101Z,62.92
2019-02-24T12:41:48.059Z,64.19
2019-02-24T12:42:48.018Z,64.68
2019-02-24T12:43:47.981Z,64.78
2019-02-24T12:44:47.942Z,64.00
2019-02-24T12:45:47.898Z,64.39
2019-02-24T12:46:47.858Z,62.85
2019-02-24T12:47:47.817Z,63.64
2019-02-24T12:48:47.777Z,63.44
2019-02-24T12:49:47.735Z,63.93
2019-02-24T12:50:47.696Z,65.10
2019-02-24T12:51:47.654Z,64.32